sensor_id;sensor_type;location;lat;lon;timestamp;P1;durP1;ratioP1;P2;durP2;ratioP2
20966;SDS011;10642;50.682;18.510;2023-07-20T00:00:07;9.20;;;5.03;;
20966;SDS011;10642;50.682;18.510;2023-07-20T00:02:40;8.70;;;5.00;;
20966;SDS011;10642;50.682;18.510;2023-07-20T00:05:07;11.47;;;4.80;;
20966;SDS011;10642;50.682;18.510;2023-07-20T00:07:33;8.57;;;6.20;;
20966;SDS011;10642;50.682;18.510;2023-07-20T00:10:00;13.43;;;5.47;;
20966;SDS011;10642;50.682;18.510;2023-07-20T00:12:27;12.53;;;6.10;;
20966;SDS011;10642;50.682;18.510;2023-07-20T00:14:54;11.93;;;6.27;;
20966;SDS011;10642;50.682;18.510;2023-07-20T00:17:21;7.57;;;5.37;;
20966;SDS011;10642;50.682;18.510;2023-07-20T00:19:48;9.63;;;5.87;;
20966;SDS011;10642;50.682;18.510;2023-07-20T00:22:15;8.63;;;4.97;;
20966;SDS011;10642;50.682;18.510;2023-07-20T00:24:42;8.47;;;4.50;;
20966;SDS011;10642;50.682;18.510;2023-07-20T00:27:09;5.17;;;3.33;;
20966;SDS011;10642;50.682;18.510;2023-07-20T00:29:35;11.47;;;4.30;;
20966;SDS011;10642;50.682;18.510;2023-07-20T00:32:03;13.87;;;4.20;;
20966;SDS011;10642;50.682;18.510;2023-07-20T00:34:31;11.97;;;4.60;;
20966;SDS011;10642;50.682;18.510;2023-07-20T00:36:58;11.90;;;4.13;;
20966;SDS011;10642;50.682;18.510;2023-07-20T00:39:25;6.27;;;3.10;;
20966;SDS011;10642;50.682;18.510;2023-07-20T00:41:52;4.70;;;3.43;;
20966;SDS011;10642;50.682;18.510;2023-07-20T00:44:19;5.97;;;3.60;;
20966;SDS011;10642;50.682;18.510;2023-07-20T00:46:46;10.50;;;3.93;;
20966;SDS011;10642;50.682;18.510;2023-07-20T00:49:14;6.57;;;3.40;;
20966;SDS011;10642;50.682;18.510;2023-07-20T00:51:41;5.10;;;2.90;;
20966;SDS011;10642;50.682;18.510;2023-07-20T00:54:08;5.53;;;3.30;;
20966;SDS011;10642;50.682;18.510;2023-07-20T00:56:35;6.43;;;3.43;;
20966;SDS011;10642;50.682;18.510;2023-07-20T00:59:04;9.23;;;3.57;;
20966;SDS011;10642;50.682;18.510;2023-07-20T01:01:31;13.47;;;3.37;;
20966;SDS011;10642;50.682;18.510;2023-07-20T01:03:58;9.33;;;3.27;;
20966;SDS011;10642;50.682;18.510;2023-07-20T01:11:27;4.73;;;3.30;;
20966;SDS011;10642;50.682;18.510;2023-07-20T01:13:55;10.90;;;3.53;;
20966;SDS011;10642;50.682;18.510;2023-07-20T01:16:22;15.87;;;3.17;;
20966;SDS011;10642;50.682;18.510;2023-07-20T01:18:49;5.10;;;3.20;;
20966;SDS011;10642;50.682;18.510;2023-07-20T01:21:21;11.13;;;3.20;;
20966;SDS011;10642;50.682;18.510;2023-07-20T01:28:49;5.30;;;3.20;;
20966;SDS011;10642;50.682;18.510;2023-07-20T01:33:50;6.27;;;3.13;;
20966;SDS011;10642;50.682;18.510;2023-07-20T01:36:18;5.33;;;3.07;;
20966;SDS011;10642;50.682;18.510;2023-07-20T01:38:46;4.83;;;2.57;;
20966;SDS011;10642;50.682;18.510;2023-07-20T01:41:13;4.87;;;2.80;;
20966;SDS011;10642;50.682;18.510;2023-07-20T01:43:40;5.33;;;3.30;;
20966;SDS011;10642;50.682;18.510;2023-07-20T01:46:07;6.20;;;3.47;;
20966;SDS011;10642;50.682;18.510;2023-07-20T01:48:34;8.37;;;3.03;;
20966;SDS011;10642;50.682;18.510;2023-07-20T01:51:01;6.03;;;2.87;;
20966;SDS011;10642;50.682;18.510;2023-07-20T01:53:28;5.33;;;2.63;;
20966;SDS011;10642;50.682;18.510;2023-07-20T01:55:56;3.83;;;2.73;;
20966;SDS011;10642;50.682;18.510;2023-07-20T01:58:23;7.80;;;2.57;;
20966;SDS011;10642;50.682;18.510;2023-07-20T02:00:51;4.43;;;2.30;;
20966;SDS011;10642;50.682;18.510;2023-07-20T02:03:18;4.20;;;2.70;;
20966;SDS011;10642;50.682;18.510;2023-07-20T02:05:45;6.43;;;2.57;;
20966;SDS011;10642;50.682;18.510;2023-07-20T02:08:12;5.47;;;2.63;;
20966;SDS011;10642;50.682;18.510;2023-07-20T02:10:39;4.17;;;2.60;;
20966;SDS011;10642;50.682;18.510;2023-07-20T02:13:06;5.30;;;2.47;;
20966;SDS011;10642;50.682;18.510;2023-07-20T02:15:33;4.70;;;2.47;;
20966;SDS011;10642;50.682;18.510;2023-07-20T02:18:00;2.97;;;2.23;;
20966;SDS011;10642;50.682;18.510;2023-07-20T02:20:27;4.60;;;2.50;;
20966;SDS011;10642;50.682;18.510;2023-07-20T02:22:54;5.57;;;2.30;;
20966;SDS011;10642;50.682;18.510;2023-07-20T02:25:22;4.33;;;2.20;;
20966;SDS011;10642;50.682;18.510;2023-07-20T02:27:49;4.63;;;2.27;;
20966;SDS011;10642;50.682;18.510;2023-07-20T02:30:16;4.43;;;2.53;;
20966;SDS011;10642;50.682;18.510;2023-07-20T02:32:44;5.33;;;2.50;;
20966;SDS011;10642;50.682;18.510;2023-07-20T02:35:12;5.10;;;2.60;;
20966;SDS011;10642;50.682;18.510;2023-07-20T02:37:39;6.07;;;2.60;;
20966;SDS011;10642;50.682;18.510;2023-07-20T02:40:06;5.17;;;2.70;;
20966;SDS011;10642;50.682;18.510;2023-07-20T02:42:34;5.00;;;2.30;;
20966;SDS011;10642;50.682;18.510;2023-07-20T02:45:02;6.87;;;2.33;;
20966;SDS011;10642;50.682;18.510;2023-07-20T02:47:29;3.10;;;2.07;;
20966;SDS011;10642;50.682;18.510;2023-07-20T02:49:56;3.97;;;2.27;;
20966;SDS011;10642;50.682;18.510;2023-07-20T02:52:23;4.23;;;2.10;;
20966;SDS011;10642;50.682;18.510;2023-07-20T02:54:50;3.27;;;1.90;;
20966;SDS011;10642;50.682;18.510;2023-07-20T02:57:18;4.50;;;2.10;;
20966;SDS011;10642;50.682;18.510;2023-07-20T02:59:45;3.13;;;1.70;;
20966;SDS011;10642;50.682;18.510;2023-07-20T03:02:12;4.20;;;2.07;;
20966;SDS011;10642;50.682;18.510;2023-07-20T03:04:39;4.57;;;1.97;;
20966;SDS011;10642;50.682;18.510;2023-07-20T03:07:06;3.03;;;1.90;;
20966;SDS011;10642;50.682;18.510;2023-07-20T03:09:34;5.37;;;1.70;;
20966;SDS011;10642;50.682;18.510;2023-07-20T03:12:01;3.17;;;1.70;;
20966;SDS011;10642;50.682;18.510;2023-07-20T03:14:28;3.57;;;1.70;;
20966;SDS011;10642;50.682;18.510;2023-07-20T03:16:55;2.67;;;1.30;;
20966;SDS011;10642;50.682;18.510;2023-07-20T03:19:22;3.70;;;1.50;;
20966;SDS011;10642;50.682;18.510;2023-07-20T03:21:49;5.03;;;1.67;;
20966;SDS011;10642;50.682;18.510;2023-07-20T03:24:18;3.40;;;1.70;;
20966;SDS011;10642;50.682;18.510;2023-07-20T03:26:46;3.47;;;1.67;;
20966;SDS011;10642;50.682;18.510;2023-07-20T03:29:13;5.70;;;1.97;;
20966;SDS011;10642;50.682;18.510;2023-07-20T03:31:40;5.67;;;1.87;;
20966;SDS011;10642;50.682;18.510;2023-07-20T03:34:07;3.03;;;1.53;;
20966;SDS011;10642;50.682;18.510;2023-07-20T03:36:35;2.03;;;1.50;;
20966;SDS011;10642;50.682;18.510;2023-07-20T03:39:02;2.70;;;1.70;;
20966;SDS011;10642;50.682;18.510;2023-07-20T03:41:29;5.00;;;1.87;;
20966;SDS011;10642;50.682;18.510;2023-07-20T03:43:56;2.87;;;1.50;;
20966;SDS011;10642;50.682;18.510;2023-07-20T03:46:23;4.60;;;1.57;;
20966;SDS011;10642;50.682;18.510;2023-07-20T03:48:50;8.33;;;2.20;;
20966;SDS011;10642;50.682;18.510;2023-07-20T03:51:17;7.33;;;1.83;;
20966;SDS011;10642;50.682;18.510;2023-07-20T03:53:44;2.63;;;1.60;;
20966;SDS011;10642;50.682;18.510;2023-07-20T03:56:11;3.43;;;2.10;;
20966;SDS011;10642;50.682;18.510;2023-07-20T03:58:38;6.57;;;1.60;;
20966;SDS011;10642;50.682;18.510;2023-07-20T04:01:05;2.50;;;1.70;;
20966;SDS011;10642;50.682;18.510;2023-07-20T04:03:32;3.23;;;1.70;;
20966;SDS011;10642;50.682;18.510;2023-07-20T04:05:59;3.23;;;1.63;;
20966;SDS011;10642;50.682;18.510;2023-07-20T04:08:26;2.63;;;1.40;;
20966;SDS011;10642;50.682;18.510;2023-07-20T04:10:53;3.27;;;1.63;;
20966;SDS011;10642;50.682;18.510;2023-07-20T04:13:20;4.73;;;1.63;;
20966;SDS011;10642;50.682;18.510;2023-07-20T04:15:46;1.60;;;1.30;;
20966;SDS011;10642;50.682;18.510;2023-07-20T04:18:13;4.77;;;2.40;;
20966;SDS011;10642;50.682;18.510;2023-07-20T04:20:40;3.33;;;1.60;;
20966;SDS011;10642;50.682;18.510;2023-07-20T04:23:08;2.60;;;1.47;;
20966;SDS011;10642;50.682;18.510;2023-07-20T04:25:35;2.73;;;1.43;;
20966;SDS011;10642;50.682;18.510;2023-07-20T04:28:08;2.67;;;1.40;;
20966;SDS011;10642;50.682;18.510;2023-07-20T04:30:42;3.07;;;1.60;;
20966;SDS011;10642;50.682;18.510;2023-07-20T04:33:10;3.70;;;1.67;;
20966;SDS011;10642;50.682;18.510;2023-07-20T04:38:18;2.23;;;1.30;;
20966;SDS011;10642;50.682;18.510;2023-07-20T04:40:50;3.47;;;1.50;;
20966;SDS011;10642;50.682;18.510;2023-07-20T04:43:17;4.40;;;1.50;;
20966;SDS011;10642;50.682;18.510;2023-07-20T04:45:45;2.77;;;1.70;;
20966;SDS011;10642;50.682;18.510;2023-07-20T04:48:13;2.70;;;1.67;;
20966;SDS011;10642;50.682;18.510;2023-07-20T04:50:48;4.87;;;1.80;;
20966;SDS011;10642;50.682;18.510;2023-07-20T04:53:15;4.20;;;2.27;;
20966;SDS011;10642;50.682;18.510;2023-07-20T04:55:47;5.57;;;2.10;;
20966;SDS011;10642;50.682;18.510;2023-07-20T04:58:19;5.40;;;2.20;;
20966;SDS011;10642;50.682;18.510;2023-07-20T05:00:47;2.77;;;1.70;;
20966;SDS011;10642;50.682;18.510;2023-07-20T05:03:14;5.57;;;2.30;;
20966;SDS011;10642;50.682;18.510;2023-07-20T05:05:41;1.83;;;1.40;;
20966;SDS011;10642;50.682;18.510;2023-07-20T05:08:09;3.87;;;2.03;;
20966;SDS011;10642;50.682;18.510;2023-07-20T05:10:36;4.53;;;1.97;;
20966;SDS011;10642;50.682;18.510;2023-07-20T05:13:04;2.80;;;1.80;;
20966;SDS011;10642;50.682;18.510;2023-07-20T05:15:32;7.23;;;1.93;;
20966;SDS011;10642;50.682;18.510;2023-07-20T05:17:59;3.50;;;2.00;;
20966;SDS011;10642;50.682;18.510;2023-07-20T05:20:26;6.17;;;2.40;;
20966;SDS011;10642;50.682;18.510;2023-07-20T05:22:53;3.83;;;2.03;;
20966;SDS011;10642;50.682;18.510;2023-07-20T05:25:20;3.73;;;2.03;;
20966;SDS011;10642;50.682;18.510;2023-07-20T05:27:49;4.87;;;2.30;;
20966;SDS011;10642;50.682;18.510;2023-07-20T05:30:17;4.57;;;1.90;;
20966;SDS011;10642;50.682;18.510;2023-07-20T05:32:44;4.27;;;1.90;;
20966;SDS011;10642;50.682;18.510;2023-07-20T05:35:14;2.90;;;2.20;;
20966;SDS011;10642;50.682;18.510;2023-07-20T05:37:42;4.43;;;2.10;;
20966;SDS011;10642;50.682;18.510;2023-07-20T05:40:09;3.23;;;1.70;;
20966;SDS011;10642;50.682;18.510;2023-07-20T05:42:38;1.80;;;1.30;;
20966;SDS011;10642;50.682;18.510;2023-07-20T05:45:06;2.03;;;1.20;;
20966;SDS011;10642;50.682;18.510;2023-07-20T05:47:33;2.63;;;1.30;;
20966;SDS011;10642;50.682;18.510;2023-07-20T05:50:00;2.23;;;1.50;;
20966;SDS011;10642;50.682;18.510;2023-07-20T05:52:27;4.73;;;1.30;;
20966;SDS011;10642;50.682;18.510;2023-07-20T05:54:54;2.97;;;1.30;;
20966;SDS011;10642;50.682;18.510;2023-07-20T05:57:20;1.83;;;1.20;;
20966;SDS011;10642;50.682;18.510;2023-07-20T05:59:47;2.53;;;1.33;;
20966;SDS011;10642;50.682;18.510;2023-07-20T06:02:14;4.17;;;1.50;;
20966;SDS011;10642;50.682;18.510;2023-07-20T06:04:41;2.23;;;1.37;;
20966;SDS011;10642;50.682;18.510;2023-07-20T06:07:08;2.47;;;1.10;;
20966;SDS011;10642;50.682;18.510;2023-07-20T06:09:35;3.30;;;1.57;;
20966;SDS011;10642;50.682;18.510;2023-07-20T06:12:02;2.50;;;1.43;;
20966;SDS011;10642;50.682;18.510;2023-07-20T06:14:30;2.03;;;1.13;;
20966;SDS011;10642;50.682;18.510;2023-07-20T06:16:57;3.27;;;1.60;;
20966;SDS011;10642;50.682;18.510;2023-07-20T06:19:23;2.93;;;1.90;;
20966;SDS011;10642;50.682;18.510;2023-07-20T06:21:50;5.80;;;1.50;;
20966;SDS011;10642;50.682;18.510;2023-07-20T06:24:17;3.80;;;2.37;;
20966;SDS011;10642;50.682;18.510;2023-07-20T06:26:44;4.47;;;2.37;;
20966;SDS011;10642;50.682;18.510;2023-07-20T06:29:11;4.50;;;2.73;;
20966;SDS011;10642;50.682;18.510;2023-07-20T06:31:38;3.83;;;2.57;;
20966;SDS011;10642;50.682;18.510;2023-07-20T06:34:05;5.73;;;2.50;;
20966;SDS011;10642;50.682;18.510;2023-07-20T06:36:32;4.17;;;2.40;;
20966;SDS011;10642;50.682;18.510;2023-07-20T06:38:59;6.10;;;2.70;;
20966;SDS011;10642;50.682;18.510;2023-07-20T06:41:29;4.30;;;2.70;;
20966;SDS011;10642;50.682;18.510;2023-07-20T06:43:58;6.57;;;3.27;;
20966;SDS011;10642;50.682;18.510;2023-07-20T06:46:26;3.70;;;3.00;;
20966;SDS011;10642;50.682;18.510;2023-07-20T06:48:54;3.80;;;2.93;;
20966;SDS011;10642;50.682;18.510;2023-07-20T06:51:24;4.60;;;3.03;;
20966;SDS011;10642;50.682;18.510;2023-07-20T06:53:52;5.17;;;2.90;;
20966;SDS011;10642;50.682;18.510;2023-07-20T06:56:19;4.63;;;2.50;;
20966;SDS011;10642;50.682;18.510;2023-07-20T06:58:50;4.40;;;3.30;;
20966;SDS011;10642;50.682;18.510;2023-07-20T07:01:18;7.07;;;2.50;;
20966;SDS011;10642;50.682;18.510;2023-07-20T07:03:49;3.97;;;2.83;;
20966;SDS011;10642;50.682;18.510;2023-07-20T07:06:21;5.73;;;2.83;;
20966;SDS011;10642;50.682;18.510;2023-07-20T07:08:50;7.43;;;3.20;;
20966;SDS011;10642;50.682;18.510;2023-07-20T07:11:17;6.07;;;3.50;;
20966;SDS011;10642;50.682;18.510;2023-07-20T07:13:44;6.10;;;3.40;;
20966;SDS011;10642;50.682;18.510;2023-07-20T07:16:13;7.73;;;4.83;;
20966;SDS011;10642;50.682;18.510;2023-07-20T07:18:46;8.33;;;4.77;;
20966;SDS011;10642;50.682;18.510;2023-07-20T07:21:13;9.23;;;4.03;;
20966;SDS011;10642;50.682;18.510;2023-07-20T07:23:40;7.13;;;4.43;;
20966;SDS011;10642;50.682;18.510;2023-07-20T07:26:07;8.10;;;4.47;;
20966;SDS011;10642;50.682;18.510;2023-07-20T07:28:34;6.53;;;5.17;;
20966;SDS011;10642;50.682;18.510;2023-07-20T07:31:03;8.00;;;4.83;;
20966;SDS011;10642;50.682;18.510;2023-07-20T07:33:31;10.23;;;4.73;;
20966;SDS011;10642;50.682;18.510;2023-07-20T07:35:58;10.70;;;5.27;;
20966;SDS011;10642;50.682;18.510;2023-07-20T07:38:27;8.10;;;4.90;;
20966;SDS011;10642;50.682;18.510;2023-07-20T07:41:14;8.03;;;4.93;;
20966;SDS011;10642;50.682;18.510;2023-07-20T07:43:41;5.90;;;4.33;;
20966;SDS011;10642;50.682;18.510;2023-07-20T07:46:08;8.77;;;4.93;;
20966;SDS011;10642;50.682;18.510;2023-07-20T07:48:35;6.90;;;4.37;;
20966;SDS011;10642;50.682;18.510;2023-07-20T07:51:02;10.60;;;4.80;;
20966;SDS011;10642;50.682;18.510;2023-07-20T07:53:29;7.73;;;4.17;;
20966;SDS011;10642;50.682;18.510;2023-07-20T07:55:56;5.03;;;3.83;;
20966;SDS011;10642;50.682;18.510;2023-07-20T07:58:23;6.90;;;4.17;;
20966;SDS011;10642;50.682;18.510;2023-07-20T08:00:50;5.17;;;3.70;;
20966;SDS011;10642;50.682;18.510;2023-07-20T08:03:17;6.40;;;3.93;;
20966;SDS011;10642;50.682;18.510;2023-07-20T08:05:44;4.50;;;3.77;;
20966;SDS011;10642;50.682;18.510;2023-07-20T08:08:11;4.53;;;3.60;;
20966;SDS011;10642;50.682;18.510;2023-07-20T08:10:37;7.67;;;3.77;;
20966;SDS011;10642;50.682;18.510;2023-07-20T08:13:04;5.70;;;2.60;;
20966;SDS011;10642;50.682;18.510;2023-07-20T08:15:31;5.83;;;2.90;;
20966;SDS011;10642;50.682;18.510;2023-07-20T08:17:58;4.37;;;3.13;;
20966;SDS011;10642;50.682;18.510;2023-07-20T08:20:25;5.70;;;2.80;;
20966;SDS011;10642;50.682;18.510;2023-07-20T08:22:56;4.50;;;2.83;;
20966;SDS011;10642;50.682;18.510;2023-07-20T08:25:25;3.97;;;2.87;;
20966;SDS011;10642;50.682;18.510;2023-07-20T08:27:52;3.20;;;2.53;;
20966;SDS011;10642;50.682;18.510;2023-07-20T08:30:20;5.00;;;3.37;;
20966;SDS011;10642;50.682;18.510;2023-07-20T08:32:47;5.93;;;3.10;;
20966;SDS011;10642;50.682;18.510;2023-07-20T08:35:14;5.03;;;3.17;;
20966;SDS011;10642;50.682;18.510;2023-07-20T08:37:42;3.40;;;3.03;;
20966;SDS011;10642;50.682;18.510;2023-07-20T08:40:09;7.57;;;3.57;;
20966;SDS011;10642;50.682;18.510;2023-07-20T08:42:36;7.93;;;3.77;;
20966;SDS011;10642;50.682;18.510;2023-07-20T08:45:05;5.67;;;3.37;;
20966;SDS011;10642;50.682;18.510;2023-07-20T08:47:33;7.23;;;3.50;;
20966;SDS011;10642;50.682;18.510;2023-07-20T08:50:00;3.33;;;2.60;;
20966;SDS011;10642;50.682;18.510;2023-07-20T08:52:28;5.77;;;3.00;;
20966;SDS011;10642;50.682;18.510;2023-07-20T08:54:56;6.73;;;2.80;;
20966;SDS011;10642;50.682;18.510;2023-07-20T08:57:23;7.30;;;3.37;;
20966;SDS011;10642;50.682;18.510;2023-07-20T08:59:50;4.30;;;2.77;;
20966;SDS011;10642;50.682;18.510;2023-07-20T09:02:19;8.20;;;3.93;;
20966;SDS011;10642;50.682;18.510;2023-07-20T09:04:47;7.20;;;2.90;;
20966;SDS011;10642;50.682;18.510;2023-07-20T09:07:15;7.47;;;3.40;;
20966;SDS011;10642;50.682;18.510;2023-07-20T09:09:42;6.80;;;3.70;;
20966;SDS011;10642;50.682;18.510;2023-07-20T09:12:13;5.50;;;3.07;;
20966;SDS011;10642;50.682;18.510;2023-07-20T09:14:42;6.07;;;3.70;;
20966;SDS011;10642;50.682;18.510;2023-07-20T09:17:12;8.83;;;3.07;;
20966;SDS011;10642;50.682;18.510;2023-07-20T09:19:45;5.03;;;3.27;;
20966;SDS011;10642;50.682;18.510;2023-07-20T09:22:12;3.80;;;2.80;;
20966;SDS011;10642;50.682;18.510;2023-07-20T09:24:38;5.37;;;3.10;;
20966;SDS011;10642;50.682;18.510;2023-07-20T09:27:05;5.53;;;3.13;;
20966;SDS011;10642;50.682;18.510;2023-07-20T09:29:32;5.80;;;3.43;;
20966;SDS011;10642;50.682;18.510;2023-07-20T09:32:00;4.97;;;3.33;;
20966;SDS011;10642;50.682;18.510;2023-07-20T09:34:30;3.70;;;2.80;;
20966;SDS011;10642;50.682;18.510;2023-07-20T09:37:03;5.47;;;3.27;;
20966;SDS011;10642;50.682;18.510;2023-07-20T09:39:31;5.30;;;3.30;;
20966;SDS011;10642;50.682;18.510;2023-07-20T09:42:01;5.73;;;2.77;;
20966;SDS011;10642;50.682;18.510;2023-07-20T09:44:31;16.90;;;2.80;;
20966;SDS011;10642;50.682;18.510;2023-07-20T09:47:02;5.23;;;2.63;;
20966;SDS011;10642;50.682;18.510;2023-07-20T09:49:30;4.30;;;2.60;;
20966;SDS011;10642;50.682;18.510;2023-07-20T09:52:17;3.23;;;2.20;;
20966;SDS011;10642;50.682;18.510;2023-07-20T09:54:48;5.63;;;2.60;;
20966;SDS011;10642;50.682;18.510;2023-07-20T09:57:15;6.73;;;2.77;;
20966;SDS011;10642;50.682;18.510;2023-07-20T09:59:42;3.80;;;2.80;;
20966;SDS011;10642;50.682;18.510;2023-07-20T10:02:13;5.77;;;3.20;;
20966;SDS011;10642;50.682;18.510;2023-07-20T10:04:43;4.97;;;2.73;;
20966;SDS011;10642;50.682;18.510;2023-07-20T10:07:11;4.00;;;2.50;;
20966;SDS011;10642;50.682;18.510;2023-07-20T10:09:39;6.63;;;2.37;;
20966;SDS011;10642;50.682;18.510;2023-07-20T10:12:07;5.03;;;2.13;;
20966;SDS011;10642;50.682;18.510;2023-07-20T10:14:44;4.30;;;2.27;;
20966;SDS011;10642;50.682;18.510;2023-07-20T10:17:16;4.13;;;2.57;;
20966;SDS011;10642;50.682;18.510;2023-07-20T10:19:47;4.07;;;2.97;;
20966;SDS011;10642;50.682;18.510;2023-07-20T10:22:19;5.57;;;2.63;;
20966;SDS011;10642;50.682;18.510;2023-07-20T10:24:46;4.87;;;3.33;;
20966;SDS011;10642;50.682;18.510;2023-07-20T10:27:16;4.60;;;3.00;;
20966;SDS011;10642;50.682;18.510;2023-07-20T10:29:43;3.73;;;2.93;;
20966;SDS011;10642;50.682;18.510;2023-07-20T10:32:10;3.70;;;2.80;;
20966;SDS011;10642;50.682;18.510;2023-07-20T10:34:37;5.10;;;2.70;;
20966;SDS011;10642;50.682;18.510;2023-07-20T10:37:04;2.87;;;2.40;;
20966;SDS011;10642;50.682;18.510;2023-07-20T10:39:31;3.17;;;2.30;;
20966;SDS011;10642;50.682;18.510;2023-07-20T10:42:09;4.27;;;2.63;;
20966;SDS011;10642;50.682;18.510;2023-07-20T10:44:39;3.73;;;2.63;;
20966;SDS011;10642;50.682;18.510;2023-07-20T10:47:10;4.07;;;2.73;;
20966;SDS011;10642;50.682;18.510;2023-07-20T10:52:23;4.50;;;3.10;;
20966;SDS011;10642;50.682;18.510;2023-07-20T10:54:50;6.73;;;2.97;;
20966;SDS011;10642;50.682;18.510;2023-07-20T10:57:24;5.40;;;2.63;;
20966;SDS011;10642;50.682;18.510;2023-07-20T10:59:51;5.73;;;2.60;;
20966;SDS011;10642;50.682;18.510;2023-07-20T11:02:18;3.43;;;3.00;;
20966;SDS011;10642;50.682;18.510;2023-07-20T11:04:47;4.60;;;3.20;;
20966;SDS011;10642;50.682;18.510;2023-07-20T11:07:15;5.33;;;3.60;;
20966;SDS011;10642;50.682;18.510;2023-07-20T11:09:43;3.03;;;2.23;;
20966;SDS011;10642;50.682;18.510;2023-07-20T11:12:15;4.17;;;3.50;;
20966;SDS011;10642;50.682;18.510;2023-07-20T11:14:55;6.07;;;3.20;;
20966;SDS011;10642;50.682;18.510;2023-07-20T11:17:29;4.07;;;3.23;;
20966;SDS011;10642;50.682;18.510;2023-07-20T11:19:57;7.33;;;4.63;;
20966;SDS011;10642;50.682;18.510;2023-07-20T11:22:27;9.33;;;4.93;;
20966;SDS011;10642;50.682;18.510;2023-07-20T11:24:57;7.97;;;4.40;;
20966;SDS011;10642;50.682;18.510;2023-07-20T11:27:24;6.20;;;3.27;;
20966;SDS011;10642;50.682;18.510;2023-07-20T11:29:51;4.37;;;3.27;;
20966;SDS011;10642;50.682;18.510;2023-07-20T11:32:22;8.43;;;3.30;;
20966;SDS011;10642;50.682;18.510;2023-07-20T11:34:49;3.83;;;3.17;;
20966;SDS011;10642;50.682;18.510;2023-07-20T11:37:16;7.80;;;4.00;;
20966;SDS011;10642;50.682;18.510;2023-07-20T11:39:43;6.57;;;3.80;;
20966;SDS011;10642;50.682;18.510;2023-07-20T11:42:11;6.70;;;4.20;;
20966;SDS011;10642;50.682;18.510;2023-07-20T11:44:38;5.63;;;4.47;;
20966;SDS011;10642;50.682;18.510;2023-07-20T11:47:06;7.73;;;4.13;;
20966;SDS011;10642;50.682;18.510;2023-07-20T11:49:37;4.43;;;3.90;;
20966;SDS011;10642;50.682;18.510;2023-07-20T11:52:05;5.67;;;3.90;;
20966;SDS011;10642;50.682;18.510;2023-07-20T11:54:34;5.67;;;3.93;;
20966;SDS011;10642;50.682;18.510;2023-07-20T11:57:01;3.93;;;3.13;;
20966;SDS011;10642;50.682;18.510;2023-07-20T11:59:29;4.20;;;3.43;;
20966;SDS011;10642;50.682;18.510;2023-07-20T12:01:56;4.83;;;3.57;;
20966;SDS011;10642;50.682;18.510;2023-07-20T12:04:23;5.87;;;3.67;;
20966;SDS011;10642;50.682;18.510;2023-07-20T12:06:50;5.33;;;3.67;;
20966;SDS011;10642;50.682;18.510;2023-07-20T12:09:17;4.73;;;4.07;;
20966;SDS011;10642;50.682;18.510;2023-07-20T12:11:44;4.80;;;3.87;;
20966;SDS011;10642;50.682;18.510;2023-07-20T12:14:14;6.67;;;4.10;;
20966;SDS011;10642;50.682;18.510;2023-07-20T12:16:43;4.10;;;3.60;;
20966;SDS011;10642;50.682;18.510;2023-07-20T12:19:11;4.57;;;3.77;;
20966;SDS011;10642;50.682;18.510;2023-07-20T12:21:39;9.37;;;3.90;;
20966;SDS011;10642;50.682;18.510;2023-07-20T12:24:08;5.53;;;3.87;;
20966;SDS011;10642;50.682;18.510;2023-07-20T12:26:38;4.27;;;3.40;;
20966;SDS011;10642;50.682;18.510;2023-07-20T12:29:05;5.70;;;4.00;;
20966;SDS011;10642;50.682;18.510;2023-07-20T12:31:33;3.97;;;3.40;;
20966;SDS011;10642;50.682;18.510;2023-07-20T12:34:02;4.30;;;2.97;;
20966;SDS011;10642;50.682;18.510;2023-07-20T12:36:29;3.73;;;2.80;;
20966;SDS011;10642;50.682;18.510;2023-07-20T12:38:57;5.80;;;2.97;;
20966;SDS011;10642;50.682;18.510;2023-07-20T12:41:25;3.77;;;2.70;;
20966;SDS011;10642;50.682;18.510;2023-07-20T12:43:51;2.90;;;2.60;;
20966;SDS011;10642;50.682;18.510;2023-07-20T12:46:20;3.77;;;2.37;;
20966;SDS011;10642;50.682;18.510;2023-07-20T12:48:47;3.23;;;2.20;;
20966;SDS011;10642;50.682;18.510;2023-07-20T12:51:15;4.00;;;2.70;;
20966;SDS011;10642;50.682;18.510;2023-07-20T12:53:42;4.23;;;2.57;;
20966;SDS011;10642;50.682;18.510;2023-07-20T12:56:09;4.40;;;2.63;;
20966;SDS011;10642;50.682;18.510;2023-07-20T12:58:39;2.83;;;2.30;;
20966;SDS011;10642;50.682;18.510;2023-07-20T13:01:06;4.07;;;2.40;;
20966;SDS011;10642;50.682;18.510;2023-07-20T13:03:33;2.07;;;1.87;;
20966;SDS011;10642;50.682;18.510;2023-07-20T13:06:00;2.13;;;1.70;;
20966;SDS011;10642;50.682;18.510;2023-07-20T13:08:30;4.23;;;1.80;;
20966;SDS011;10642;50.682;18.510;2023-07-20T13:10:59;2.53;;;1.57;;
20966;SDS011;10642;50.682;18.510;2023-07-20T13:13:27;2.07;;;1.50;;
20966;SDS011;10642;50.682;18.510;2023-07-20T13:15:54;1.70;;;1.40;;
20966;SDS011;10642;50.682;18.510;2023-07-20T13:18:21;1.70;;;1.40;;
20966;SDS011;10642;50.682;18.510;2023-07-20T13:20:49;2.37;;;1.60;;
20966;SDS011;10642;50.682;18.510;2023-07-20T13:23:16;4.67;;;1.10;;
20966;SDS011;10642;50.682;18.510;2023-07-20T13:25:43;3.03;;;1.77;;
20966;SDS011;10642;50.682;18.510;2023-07-20T13:28:10;2.63;;;2.03;;
20966;SDS011;10642;50.682;18.510;2023-07-20T13:30:37;1.77;;;1.60;;
20966;SDS011;10642;50.682;18.510;2023-07-20T13:33:06;1.90;;;1.63;;
20966;SDS011;10642;50.682;18.510;2023-07-20T13:35:33;2.87;;;1.67;;
20966;SDS011;10642;50.682;18.510;2023-07-20T13:38:03;2.33;;;1.50;;
20966;SDS011;10642;50.682;18.510;2023-07-20T13:40:30;1.60;;;1.30;;
20966;SDS011;10642;50.682;18.510;2023-07-20T13:42:57;5.53;;;1.33;;
20966;SDS011;10642;50.682;18.510;2023-07-20T13:45:24;1.43;;;1.20;;
20966;SDS011;10642;50.682;18.510;2023-07-20T13:47:51;3.67;;;1.47;;
20966;SDS011;10642;50.682;18.510;2023-07-20T13:50:19;3.03;;;1.83;;
20966;SDS011;10642;50.682;18.510;2023-07-20T13:52:49;1.47;;;1.20;;
20966;SDS011;10642;50.682;18.510;2023-07-20T13:55:15;3.27;;;1.63;;
20966;SDS011;10642;50.682;18.510;2023-07-20T13:58:02;1.70;;;1.57;;
20966;SDS011;10642;50.682;18.510;2023-07-20T14:00:29;1.90;;;1.50;;
20966;SDS011;10642;50.682;18.510;2023-07-20T14:03:00;4.23;;;1.77;;
20966;SDS011;10642;50.682;18.510;2023-07-20T14:05:30;4.57;;;1.50;;
20966;SDS011;10642;50.682;18.510;2023-07-20T14:08:00;3.43;;;1.70;;
20966;SDS011;10642;50.682;18.510;2023-07-20T14:10:27;5.47;;;2.20;;
20966;SDS011;10642;50.682;18.510;2023-07-20T14:12:54;4.23;;;1.80;;
20966;SDS011;10642;50.682;18.510;2023-07-20T14:15:21;3.77;;;2.00;;
20966;SDS011;10642;50.682;18.510;2023-07-20T14:17:48;2.60;;;1.80;;
20966;SDS011;10642;50.682;18.510;2023-07-20T14:20:15;4.50;;;1.80;;
20966;SDS011;10642;50.682;18.510;2023-07-20T14:22:44;6.30;;;2.47;;
20966;SDS011;10642;50.682;18.510;2023-07-20T14:25:12;6.93;;;2.70;;
20966;SDS011;10642;50.682;18.510;2023-07-20T14:27:39;5.87;;;1.93;;
20966;SDS011;10642;50.682;18.510;2023-07-20T14:30:06;9.20;;;1.90;;
20966;SDS011;10642;50.682;18.510;2023-07-20T14:32:34;3.50;;;1.70;;
20966;SDS011;10642;50.682;18.510;2023-07-20T14:35:01;5.63;;;1.83;;
20966;SDS011;10642;50.682;18.510;2023-07-20T14:37:28;3.33;;;1.90;;
20966;SDS011;10642;50.682;18.510;2023-07-20T14:39:55;2.80;;;1.73;;
20966;SDS011;10642;50.682;18.510;2023-07-20T14:42:22;4.00;;;1.70;;
20966;SDS011;10642;50.682;18.510;2023-07-20T14:44:49;2.80;;;1.83;;
20966;SDS011;10642;50.682;18.510;2023-07-20T14:47:17;3.87;;;1.60;;
20966;SDS011;10642;50.682;18.510;2023-07-20T14:49:45;2.90;;;1.60;;
20966;SDS011;10642;50.682;18.510;2023-07-20T14:52:12;3.83;;;1.70;;
20966;SDS011;10642;50.682;18.510;2023-07-20T14:54:42;2.87;;;1.70;;